Terminal Aerodrome Forecast
Issued by NWS Caribou, ME

Home | Current Version | Previous Version | Text Only | Print | Product List | Glossary On
Versions: 1 2 3 4 5 6 7 8 9 10 11 12 13 14 15 16 17 18 19 20 21 22 23 24 25 26 27 28 29 30 31 32 33
000
FTUS41 KCAR 030500
TAFBGR
TAF
KBGR 030531Z 0306/0406 17005KT 3/4SM BR OVC002
     FM031200 32005KT P6SM SCT001
     FM031700 30012KT P6SM FEW250
     FM040100 29004KT P6SM SKC=

USA.gov is the U.S. government's official web portal to all federal, state and local government web resources and services.